sensor_id;sensor_type;location;lat;lon;timestamp;P1;durP1;ratioP1;P2;durP2;ratioP2
75171;SDS011;63750;52.418;20.742;2023-04-24T00:02:24;15.50;;;12.70;;
75171;SDS011;63750;52.418;20.742;2023-04-24T00:04:52;14.80;;;13.30;;
75171;SDS011;63750;52.418;20.742;2023-04-24T00:07:19;15.90;;;13.30;;
75171;SDS011;63750;52.418;20.742;2023-04-24T00:09:46;14.90;;;13.10;;
75171;SDS011;63750;52.418;20.742;2023-04-24T00:12:13;15.30;;;13.70;;
75171;SDS011;63750;52.418;20.742;2023-04-24T00:14:40;15.60;;;13.90;;
75171;SDS011;63750;52.418;20.742;2023-04-24T00:17:07;14.80;;;13.40;;
75171;SDS011;63750;52.418;20.742;2023-04-24T00:19:34;15.90;;;14.40;;
75171;SDS011;63750;52.418;20.742;2023-04-24T00:22:02;16.90;;;13.40;;
75171;SDS011;63750;52.418;20.742;2023-04-24T00:24:29;15.90;;;13.80;;
75171;SDS011;63750;52.418;20.742;2023-04-24T00:26:56;15.80;;;14.30;;
75171;SDS011;63750;52.418;20.742;2023-04-24T00:29:23;15.60;;;13.70;;
75171;SDS011;63750;52.418;20.742;2023-04-24T00:31:50;15.20;;;13.60;;
75171;SDS011;63750;52.418;20.742;2023-04-24T00:34:17;15.80;;;14.00;;
75171;SDS011;63750;52.418;20.742;2023-04-24T00:36:45;15.50;;;13.90;;
75171;SDS011;63750;52.418;20.742;2023-04-24T00:39:11;15.50;;;14.10;;
75171;SDS011;63750;52.418;20.742;2023-04-24T00:41:38;16.30;;;13.90;;
75171;SDS011;63750;52.418;20.742;2023-04-24T00:44:06;17.20;;;14.70;;
75171;SDS011;63750;52.418;20.742;2023-04-24T00:46:33;16.90;;;14.90;;
75171;SDS011;63750;52.418;20.742;2023-04-24T00:49:00;16.30;;;14.60;;
75171;SDS011;63750;52.418;20.742;2023-04-24T00:51:28;16.40;;;14.70;;
75171;SDS011;63750;52.418;20.742;2023-04-24T00:53:55;16.90;;;14.10;;
75171;SDS011;63750;52.418;20.742;2023-04-24T00:56:22;16.20;;;14.60;;
75171;SDS011;63750;52.418;20.742;2023-04-24T00:58:49;16.10;;;14.60;;
75171;SDS011;63750;52.418;20.742;2023-04-24T01:01:16;16.20;;;14.60;;
75171;SDS011;63750;52.418;20.742;2023-04-24T01:03:44;16.20;;;14.50;;
75171;SDS011;63750;52.418;20.742;2023-04-24T01:06:11;16.30;;;14.40;;
75171;SDS011;63750;52.418;20.742;2023-04-24T01:08:38;15.90;;;14.40;;
75171;SDS011;63750;52.418;20.742;2023-04-24T01:11:07;17.00;;;14.50;;
75171;SDS011;63750;52.418;20.742;2023-04-24T01:13:34;16.30;;;14.80;;
75171;SDS011;63750;52.418;20.742;2023-04-24T01:16:01;16.90;;;15.40;;
75171;SDS011;63750;52.418;20.742;2023-04-24T01:18:28;18.30;;;15.60;;
75171;SDS011;63750;52.418;20.742;2023-04-24T01:20:57;16.90;;;15.20;;
75171;SDS011;63750;52.418;20.742;2023-04-24T01:23:25;18.00;;;15.70;;
75171;SDS011;63750;52.418;20.742;2023-04-24T01:25:52;16.90;;;15.20;;
75171;SDS011;63750;52.418;20.742;2023-04-24T01:28:19;17.40;;;15.70;;
75171;SDS011;63750;52.418;20.742;2023-04-24T01:30:46;18.40;;;15.20;;
75171;SDS011;63750;52.418;20.742;2023-04-24T01:33:14;17.70;;;15.80;;
75171;SDS011;63750;52.418;20.742;2023-04-24T01:35:42;17.50;;;15.60;;
75171;SDS011;63750;52.418;20.742;2023-04-24T01:38:09;17.80;;;15.90;;
75171;SDS011;63750;52.418;20.742;2023-04-24T01:40:36;16.60;;;15.00;;
75171;SDS011;63750;52.418;20.742;2023-04-24T01:43:03;17.60;;;15.90;;
75171;SDS011;63750;52.418;20.742;2023-04-24T01:45:30;17.50;;;15.80;;
75171;SDS011;63750;52.418;20.742;2023-04-24T01:47:57;16.70;;;15.10;;
75171;SDS011;63750;52.418;20.742;2023-04-24T01:50:24;17.80;;;16.00;;
75171;SDS011;63750;52.418;20.742;2023-04-24T01:52:51;18.60;;;16.20;;
75171;SDS011;63750;52.418;20.742;2023-04-24T01:55:18;17.60;;;15.80;;
75171;SDS011;63750;52.418;20.742;2023-04-24T01:57:45;17.50;;;15.70;;
75171;SDS011;63750;52.418;20.742;2023-04-24T02:00:13;17.40;;;15.60;;
75171;SDS011;63750;52.418;20.742;2023-04-24T02:02:40;17.30;;;15.60;;
75171;SDS011;63750;52.418;20.742;2023-04-24T02:05:08;17.60;;;15.90;;
75171;SDS011;63750;52.418;20.742;2023-04-24T02:07:35;18.40;;;16.60;;
75171;SDS011;63750;52.418;20.742;2023-04-24T02:10:03;18.00;;;16.20;;
75171;SDS011;63750;52.418;20.742;2023-04-24T02:12:31;18.00;;;16.10;;
75171;SDS011;63750;52.418;20.742;2023-04-24T02:14:58;19.30;;;15.60;;
75171;SDS011;63750;52.418;20.742;2023-04-24T02:17:26;17.90;;;16.00;;
75171;SDS011;63750;52.418;20.742;2023-04-24T02:19:52;17.90;;;15.80;;
75171;SDS011;63750;52.418;20.742;2023-04-24T02:22:20;18.40;;;16.60;;
75171;SDS011;63750;52.418;20.742;2023-04-24T02:24:46;18.10;;;16.20;;
75171;SDS011;63750;52.418;20.742;2023-04-24T02:27:14;18.00;;;16.20;;
75171;SDS011;63750;52.418;20.742;2023-04-24T02:29:41;18.60;;;16.70;;
75171;SDS011;63750;52.418;20.742;2023-04-24T02:32:08;18.10;;;16.20;;
75171;SDS011;63750;52.418;20.742;2023-04-24T02:34:35;19.10;;;16.40;;
75171;SDS011;63750;52.418;20.742;2023-04-24T02:37:02;18.50;;;16.60;;
75171;SDS011;63750;52.418;20.742;2023-04-24T02:39:29;19.60;;;16.50;;
75171;SDS011;63750;52.418;20.742;2023-04-24T02:41:56;19.00;;;17.10;;
75171;SDS011;63750;52.418;20.742;2023-04-24T02:44:23;20.90;;;17.20;;
75171;SDS011;63750;52.418;20.742;2023-04-24T02:46:50;18.50;;;16.60;;
75171;SDS011;63750;52.418;20.742;2023-04-24T02:49:17;18.50;;;16.50;;
75171;SDS011;63750;52.418;20.742;2023-04-24T02:51:44;19.10;;;17.20;;
75171;SDS011;63750;52.418;20.742;2023-04-24T02:54:10;18.70;;;16.90;;
75171;SDS011;63750;52.418;20.742;2023-04-24T02:56:37;19.10;;;17.20;;
75171;SDS011;63750;52.418;20.742;2023-04-24T02:59:04;19.80;;;17.80;;
75171;SDS011;63750;52.418;20.742;2023-04-24T03:01:31;19.10;;;17.10;;
75171;SDS011;63750;52.418;20.742;2023-04-24T03:03:58;19.70;;;17.70;;
75171;SDS011;63750;52.418;20.742;2023-04-24T03:06:25;20.20;;;18.10;;
75171;SDS011;63750;52.418;20.742;2023-04-24T03:08:52;20.00;;;17.90;;
75171;SDS011;63750;52.418;20.742;2023-04-24T03:11:19;19.30;;;17.30;;
75171;SDS011;63750;52.418;20.742;2023-04-24T03:13:46;20.30;;;18.10;;
75171;SDS011;63750;52.418;20.742;2023-04-24T03:16:13;20.00;;;18.00;;
75171;SDS011;63750;52.418;20.742;2023-04-24T03:18:40;20.60;;;18.50;;
75171;SDS011;63750;52.418;20.742;2023-04-24T03:21:07;19.70;;;17.70;;
75171;SDS011;63750;52.418;20.742;2023-04-24T03:23:35;19.30;;;17.50;;
75171;SDS011;63750;52.418;20.742;2023-04-24T03:26:02;21.00;;;18.80;;
75171;SDS011;63750;52.418;20.742;2023-04-24T03:28:29;20.80;;;18.60;;
75171;SDS011;63750;52.418;20.742;2023-04-24T03:30:56;22.40;;;18.60;;
75171;SDS011;63750;52.418;20.742;2023-04-24T03:33:23;21.10;;;18.30;;
75171;SDS011;63750;52.418;20.742;2023-04-24T03:35:50;22.00;;;19.00;;
75171;SDS011;63750;52.418;20.742;2023-04-24T03:38:17;19.90;;;17.70;;
75171;SDS011;63750;52.418;20.742;2023-04-24T03:40:44;20.20;;;18.10;;
75171;SDS011;63750;52.418;20.742;2023-04-24T03:43:11;20.20;;;18.20;;
75171;SDS011;63750;52.418;20.742;2023-04-24T03:45:38;21.90;;;19.20;;
75171;SDS011;63750;52.418;20.742;2023-04-24T03:48:05;22.20;;;19.90;;
75171;SDS011;63750;52.418;20.742;2023-04-24T03:50:32;21.80;;;19.50;;
75171;SDS011;63750;52.418;20.742;2023-04-24T03:52:59;20.70;;;18.60;;
75171;SDS011;63750;52.418;20.742;2023-04-24T03:55:26;21.90;;;19.60;;
75171;SDS011;63750;52.418;20.742;2023-04-24T03:57:53;22.90;;;19.60;;
75171;SDS011;63750;52.418;20.742;2023-04-24T04:00:20;22.50;;;20.20;;
75171;SDS011;63750;52.418;20.742;2023-04-24T04:02:47;22.90;;;20.50;;
75171;SDS011;63750;52.418;20.742;2023-04-24T04:05:15;23.20;;;20.80;;
75171;SDS011;63750;52.418;20.742;2023-04-24T04:07:42;22.70;;;20.50;;
75171;SDS011;63750;52.418;20.742;2023-04-24T04:10:09;23.80;;;20.40;;
75171;SDS011;63750;52.418;20.742;2023-04-24T04:12:36;22.40;;;20.20;;
75171;SDS011;63750;52.418;20.742;2023-04-24T04:15:04;22.50;;;20.10;;
75171;SDS011;63750;52.418;20.742;2023-04-24T04:17:32;25.30;;;20.40;;
75171;SDS011;63750;52.418;20.742;2023-04-24T04:19:59;24.60;;;21.20;;
75171;SDS011;63750;52.418;20.742;2023-04-24T04:22:26;23.70;;;20.20;;
75171;SDS011;63750;52.418;20.742;2023-04-24T04:24:53;22.10;;;19.80;;
75171;SDS011;63750;52.418;20.742;2023-04-24T04:27:20;23.40;;;20.80;;
75171;SDS011;63750;52.418;20.742;2023-04-24T04:29:47;27.50;;;23.20;;
75171;SDS011;63750;52.418;20.742;2023-04-24T04:32:14;28.10;;;21.50;;
75171;SDS011;63750;52.418;20.742;2023-04-24T04:34:41;26.00;;;20.90;;
75171;SDS011;63750;52.418;20.742;2023-04-24T04:37:08;26.20;;;21.00;;
75171;SDS011;63750;52.418;20.742;2023-04-24T04:39:35;29.50;;;21.10;;
75171;SDS011;63750;52.418;20.742;2023-04-24T04:42:02;25.40;;;21.00;;
75171;SDS011;63750;52.418;20.742;2023-04-24T04:44:29;25.70;;;20.30;;
75171;SDS011;63750;52.418;20.742;2023-04-24T04:46:56;22.30;;;19.90;;
75171;SDS011;63750;52.418;20.742;2023-04-24T04:49:24;30.20;;;27.00;;
75171;SDS011;63750;52.418;20.742;2023-04-24T04:51:51;30.60;;;26.40;;
75171;SDS011;63750;52.418;20.742;2023-04-24T04:54:18;27.80;;;24.90;;
75171;SDS011;63750;52.418;20.742;2023-04-24T04:56:45;25.30;;;22.50;;
75171;SDS011;63750;52.418;20.742;2023-04-24T04:59:12;25.50;;;22.80;;
75171;SDS011;63750;52.418;20.742;2023-04-24T05:01:39;23.10;;;20.70;;
75171;SDS011;63750;52.418;20.742;2023-04-24T05:04:06;23.60;;;20.60;;
75171;SDS011;63750;52.418;20.742;2023-04-24T05:06:33;23.20;;;20.80;;
75171;SDS011;63750;52.418;20.742;2023-04-24T05:09:00;21.10;;;18.90;;
75171;SDS011;63750;52.418;20.742;2023-04-24T05:11:27;22.80;;;19.30;;
75171;SDS011;63750;52.418;20.742;2023-04-24T05:13:55;21.50;;;19.50;;
75171;SDS011;63750;52.418;20.742;2023-04-24T05:16:21;21.50;;;19.30;;
75171;SDS011;63750;52.418;20.742;2023-04-24T05:18:48;19.70;;;17.60;;
75171;SDS011;63750;52.418;20.742;2023-04-24T05:21:16;20.20;;;18.10;;
75171;SDS011;63750;52.418;20.742;2023-04-24T05:23:42;19.20;;;17.30;;
75171;SDS011;63750;52.418;20.742;2023-04-24T05:26:09;18.80;;;17.00;;
75171;SDS011;63750;52.418;20.742;2023-04-24T05:28:37;20.10;;;17.90;;
75171;SDS011;63750;52.418;20.742;2023-04-24T05:31:04;18.20;;;16.50;;
75171;SDS011;63750;52.418;20.742;2023-04-24T05:33:31;20.10;;;18.00;;
75171;SDS011;63750;52.418;20.742;2023-04-24T05:35:58;19.70;;;17.60;;
75171;SDS011;63750;52.418;20.742;2023-04-24T05:38:25;18.50;;;16.80;;
75171;SDS011;63750;52.418;20.742;2023-04-24T05:40:52;20.10;;;18.10;;
75171;SDS011;63750;52.418;20.742;2023-04-24T05:43:19;19.30;;;17.20;;
75171;SDS011;63750;52.418;20.742;2023-04-24T05:45:46;18.20;;;16.50;;
75171;SDS011;63750;52.418;20.742;2023-04-24T05:48:13;18.90;;;17.10;;
75171;SDS011;63750;52.418;20.742;2023-04-24T05:50:40;19.60;;;17.60;;
75171;SDS011;63750;52.418;20.742;2023-04-24T05:53:08;20.10;;;18.00;;
75171;SDS011;63750;52.418;20.742;2023-04-24T05:55:38;19.60;;;17.70;;
75171;SDS011;63750;52.418;20.742;2023-04-24T05:58:05;19.60;;;17.50;;
75171;SDS011;63750;52.418;20.742;2023-04-24T06:00:32;19.30;;;17.30;;
75171;SDS011;63750;52.418;20.742;2023-04-24T06:02:59;19.80;;;17.80;;
75171;SDS011;63750;52.418;20.742;2023-04-24T06:05:26;19.90;;;17.90;;
75171;SDS011;63750;52.418;20.742;2023-04-24T06:07:56;18.90;;;17.00;;
75171;SDS011;63750;52.418;20.742;2023-04-24T06:10:23;18.40;;;16.50;;
75171;SDS011;63750;52.418;20.742;2023-04-24T06:12:51;19.90;;;17.80;;
75171;SDS011;63750;52.418;20.742;2023-04-24T06:15:18;18.10;;;16.20;;
75171;SDS011;63750;52.418;20.742;2023-04-24T06:17:48;17.80;;;16.00;;
75171;SDS011;63750;52.418;20.742;2023-04-24T06:20:15;18.20;;;15.40;;
75171;SDS011;63750;52.418;20.742;2023-04-24T06:22:42;18.30;;;15.90;;
75171;SDS011;63750;52.418;20.742;2023-04-24T06:25:09;17.00;;;15.30;;
75171;SDS011;63750;52.418;20.742;2023-04-24T06:27:36;17.60;;;15.90;;
75171;SDS011;63750;52.418;20.742;2023-04-24T06:30:04;17.00;;;15.20;;
75171;SDS011;63750;52.418;20.742;2023-04-24T06:32:32;16.20;;;14.50;;
75171;SDS011;63750;52.418;20.742;2023-04-24T06:34:59;16.90;;;15.30;;
75171;SDS011;63750;52.418;20.742;2023-04-24T06:37:26;16.90;;;15.20;;
75171;SDS011;63750;52.418;20.742;2023-04-24T06:39:53;16.00;;;14.60;;
75171;SDS011;63750;52.418;20.742;2023-04-24T06:42:20;18.10;;;15.10;;
75171;SDS011;63750;52.418;20.742;2023-04-24T06:44:47;18.00;;;14.70;;
75171;SDS011;63750;52.418;20.742;2023-04-24T06:47:14;16.10;;;14.70;;
75171;SDS011;63750;52.418;20.742;2023-04-24T06:49:41;16.50;;;14.80;;
75171;SDS011;63750;52.418;20.742;2023-04-24T06:52:08;16.90;;;15.20;;
75171;SDS011;63750;52.418;20.742;2023-04-24T06:54:35;17.30;;;15.50;;
75171;SDS011;63750;52.418;20.742;2023-04-24T06:57:02;16.90;;;15.30;;
75171;SDS011;63750;52.418;20.742;2023-04-24T06:59:29;16.90;;;14.60;;
75171;SDS011;63750;52.418;20.742;2023-04-24T07:01:57;15.60;;;14.10;;
75171;SDS011;63750;52.418;20.742;2023-04-24T07:04:24;15.00;;;13.40;;
75171;SDS011;63750;52.418;20.742;2023-04-24T07:06:51;15.70;;;14.30;;
75171;SDS011;63750;52.418;20.742;2023-04-24T07:09:18;15.20;;;13.70;;
75171;SDS011;63750;52.418;20.742;2023-04-24T07:11:45;16.50;;;14.60;;
75171;SDS011;63750;52.418;20.742;2023-04-24T07:14:12;15.50;;;13.90;;
75171;SDS011;63750;52.418;20.742;2023-04-24T07:16:39;16.00;;;14.20;;
75171;SDS011;63750;52.418;20.742;2023-04-24T07:19:06;15.10;;;13.50;;
75171;SDS011;63750;52.418;20.742;2023-04-24T07:21:33;14.70;;;13.20;;
75171;SDS011;63750;52.418;20.742;2023-04-24T07:24:00;14.40;;;13.00;;
75171;SDS011;63750;52.418;20.742;2023-04-24T07:26:28;15.90;;;13.40;;
75171;SDS011;63750;52.418;20.742;2023-04-24T07:28:55;14.80;;;13.20;;
75171;SDS011;63750;52.418;20.742;2023-04-24T07:31:22;14.60;;;12.90;;
75171;SDS011;63750;52.418;20.742;2023-04-24T07:33:50;15.10;;;13.50;;
75171;SDS011;63750;52.418;20.742;2023-04-24T07:36:17;15.10;;;13.60;;
75171;SDS011;63750;52.418;20.742;2023-04-24T07:38:44;13.60;;;12.20;;
75171;SDS011;63750;52.418;20.742;2023-04-24T07:41:11;15.00;;;13.40;;
75171;SDS011;63750;52.418;20.742;2023-04-24T07:43:38;29.20;;;26.60;;
75171;SDS011;63750;52.418;20.742;2023-04-24T07:46:05;22.70;;;20.50;;
75171;SDS011;63750;52.418;20.742;2023-04-24T07:48:32;16.60;;;14.30;;
75171;SDS011;63750;52.418;20.742;2023-04-24T07:50:59;17.90;;;16.10;;
75171;SDS011;63750;52.418;20.742;2023-04-24T07:53:26;13.90;;;12.60;;
75171;SDS011;63750;52.418;20.742;2023-04-24T07:55:54;13.40;;;12.00;;
75171;SDS011;63750;52.418;20.742;2023-04-24T07:58:21;14.60;;;12.30;;
75171;SDS011;63750;52.418;20.742;2023-04-24T08:00:48;14.80;;;12.30;;
75171;SDS011;63750;52.418;20.742;2023-04-24T08:03:15;12.40;;;11.10;;
75171;SDS011;63750;52.418;20.742;2023-04-24T08:05:42;14.30;;;12.20;;
75171;SDS011;63750;52.418;20.742;2023-04-24T08:08:09;15.80;;;12.40;;
75171;SDS011;63750;52.418;20.742;2023-04-24T08:10:37;12.50;;;11.20;;
75171;SDS011;63750;52.418;20.742;2023-04-24T08:13:03;13.60;;;12.30;;
75171;SDS011;63750;52.418;20.742;2023-04-24T08:15:30;14.00;;;12.70;;
75171;SDS011;63750;52.418;20.742;2023-04-24T08:17:58;12.70;;;11.40;;
75171;SDS011;63750;52.418;20.742;2023-04-24T08:20:25;13.30;;;12.00;;
75171;SDS011;63750;52.418;20.742;2023-04-24T08:22:52;12.40;;;11.30;;
75171;SDS011;63750;52.418;20.742;2023-04-24T08:25:19;12.00;;;10.80;;
75171;SDS011;63750;52.418;20.742;2023-04-24T08:27:46;13.00;;;11.70;;
75171;SDS011;63750;52.418;20.742;2023-04-24T08:30:13;12.70;;;11.40;;
75171;SDS011;63750;52.418;20.742;2023-04-24T08:32:41;12.90;;;11.60;;
75171;SDS011;63750;52.418;20.742;2023-04-24T08:35:08;11.40;;;10.30;;
75171;SDS011;63750;52.418;20.742;2023-04-24T08:37:35;11.70;;;10.60;;
75171;SDS011;63750;52.418;20.742;2023-04-24T08:40:03;12.10;;;10.90;;
75171;SDS011;63750;52.418;20.742;2023-04-24T08:42:37;11.50;;;10.40;;
75171;SDS011;63750;52.418;20.742;2023-04-24T08:45:08;11.10;;;10.00;;
75171;SDS011;63750;52.418;20.742;2023-04-24T08:47:37;10.60;;;9.60;;
75171;SDS011;63750;52.418;20.742;2023-04-24T08:50:06;11.20;;;10.10;;
75171;SDS011;63750;52.418;20.742;2023-04-24T08:52:35;11.30;;;10.30;;
75171;SDS011;63750;52.418;20.742;2023-04-24T08:55:02;11.00;;;9.90;;
75171;SDS011;63750;52.418;20.742;2023-04-24T08:57:29;10.30;;;9.30;;
75171;SDS011;63750;52.418;20.742;2023-04-24T08:59:58;10.80;;;9.70;;
75171;SDS011;63750;52.418;20.742;2023-04-24T09:02:27;10.40;;;9.50;;
75171;SDS011;63750;52.418;20.742;2023-04-24T09:04:56;10.70;;;9.60;;
75171;SDS011;63750;52.418;20.742;2023-04-24T09:07:24;9.80;;;8.90;;
75171;SDS011;63750;52.418;20.742;2023-04-24T09:09:53;10.20;;;9.20;;
75171;SDS011;63750;52.418;20.742;2023-04-24T09:12:20;9.80;;;9.00;;
75171;SDS011;63750;52.418;20.742;2023-04-24T09:14:48;9.70;;;8.80;;
75171;SDS011;63750;52.418;20.742;2023-04-24T09:17:17;9.90;;;8.60;;
75171;SDS011;63750;52.418;20.742;2023-04-24T09:19:44;11.10;;;10.10;;
75171;SDS011;63750;52.418;20.742;2023-04-24T09:22:11;10.20;;;9.30;;
75171;SDS011;63750;52.418;20.742;2023-04-24T09:24:38;10.10;;;9.10;;
75171;SDS011;63750;52.418;20.742;2023-04-24T09:27:05;9.60;;;8.20;;
75171;SDS011;63750;52.418;20.742;2023-04-24T09:29:33;10.10;;;9.20;;
75171;SDS011;63750;52.418;20.742;2023-04-24T09:32:00;8.30;;;7.60;;
75171;SDS011;63750;52.418;20.742;2023-04-24T09:34:45;7.40;;;6.80;;
75171;SDS011;63750;52.418;20.742;2023-04-24T09:37:16;8.70;;;7.90;;
75171;SDS011;63750;52.418;20.742;2023-04-24T09:40:07;8.30;;;7.50;;
75171;SDS011;63750;52.418;20.742;2023-04-24T09:42:35;8.50;;;7.90;;
75171;SDS011;63750;52.418;20.742;2023-04-24T09:45:02;9.80;;;8.90;;
75171;SDS011;63750;52.418;20.742;2023-04-24T09:47:36;10.10;;;8.30;;
75171;SDS011;63750;52.418;20.742;2023-04-24T09:50:10;8.60;;;7.90;;
75171;SDS011;63750;52.418;20.742;2023-04-24T09:52:43;9.40;;;8.50;;
75171;SDS011;63750;52.418;20.742;2023-04-24T09:55:14;8.60;;;7.80;;
75171;SDS011;63750;52.418;20.742;2023-04-24T09:57:48;9.70;;;8.90;;
75171;SDS011;63750;52.418;20.742;2023-04-24T10:00:24;9.20;;;8.30;;
75171;SDS011;63750;52.418;20.742;2023-04-24T10:02:55;9.60;;;8.80;;
75171;SDS011;63750;52.418;20.742;2023-04-24T10:05:26;10.50;;;9.50;;
75171;SDS011;63750;52.418;20.742;2023-04-24T10:07:56;10.40;;;9.40;;
75171;SDS011;63750;52.418;20.742;2023-04-24T10:10:25;9.70;;;8.80;;
75171;SDS011;63750;52.418;20.742;2023-04-24T10:12:52;9.80;;;8.80;;
75171;SDS011;63750;52.418;20.742;2023-04-24T10:15:20;9.70;;;8.90;;
75171;SDS011;63750;52.418;20.742;2023-04-24T10:17:48;9.40;;;8.60;;
75171;SDS011;63750;52.418;20.742;2023-04-24T10:20:16;9.60;;;8.80;;
75171;SDS011;63750;52.418;20.742;2023-04-24T10:22:43;9.70;;;8.70;;
75171;SDS011;63750;52.418;20.742;2023-04-24T10:25:13;10.70;;;9.60;;
75171;SDS011;63750;52.418;20.742;2023-04-24T10:27:42;9.70;;;8.80;;
75171;SDS011;63750;52.418;20.742;2023-04-24T10:30:12;10.70;;;9.60;;
75171;SDS011;63750;52.418;20.742;2023-04-24T10:32:40;10.50;;;9.40;;
75171;SDS011;63750;52.418;20.742;2023-04-24T10:35:08;10.20;;;9.20;;
75171;SDS011;63750;52.418;20.742;2023-04-24T10:37:36;11.30;;;10.30;;
75171;SDS011;63750;52.418;20.742;2023-04-24T10:40:07;9.70;;;8.80;;
75171;SDS011;63750;52.418;20.742;2023-04-24T10:42:36;10.40;;;9.30;;
75171;SDS011;63750;52.418;20.742;2023-04-24T10:45:07;9.50;;;8.70;;
75171;SDS011;63750;52.418;20.742;2023-04-24T10:47:43;10.30;;;8.90;;
75171;SDS011;63750;52.418;20.742;2023-04-24T10:50:18;10.20;;;9.00;;
75171;SDS011;63750;52.418;20.742;2023-04-24T10:52:45;10.20;;;9.20;;
75171;SDS011;63750;52.418;20.742;2023-04-24T10:55:13;9.90;;;8.90;;
75171;SDS011;63750;52.418;20.742;2023-04-24T10:57:40;9.50;;;8.60;;
75171;SDS011;63750;52.418;20.742;2023-04-24T11:00:28;10.30;;;9.30;;
75171;SDS011;63750;52.418;20.742;2023-04-24T11:02:55;11.70;;;8.80;;
75171;SDS011;63750;52.418;20.742;2023-04-24T11:05:22;9.80;;;8.90;;
75171;SDS011;63750;52.418;20.742;2023-04-24T11:08:13;9.50;;;8.30;;
75171;SDS011;63750;52.418;20.742;2023-04-24T11:10:44;10.10;;;9.30;;
75171;SDS011;63750;52.418;20.742;2023-04-24T11:13:14;9.30;;;8.40;;
75171;SDS011;63750;52.418;20.742;2023-04-24T11:15:42;10.00;;;8.30;;
75171;SDS011;63750;52.418;20.742;2023-04-24T11:18:12;9.30;;;8.30;;
75171;SDS011;63750;52.418;20.742;2023-04-24T11:20:42;9.00;;;8.20;;
75171;SDS011;63750;52.418;20.742;2023-04-24T11:23:11;9.60;;;8.70;;
75171;SDS011;63750;52.418;20.742;2023-04-24T11:25:39;11.00;;;9.00;;
75171;SDS011;63750;52.418;20.742;2023-04-24T11:28:07;9.60;;;8.70;;
75171;SDS011;63750;52.418;20.742;2023-04-24T11:30:40;9.70;;;8.80;;
75171;SDS011;63750;52.418;20.742;2023-04-24T11:33:07;8.90;;;8.00;;
75171;SDS011;63750;52.418;20.742;2023-04-24T11:35:35;10.00;;;8.70;;
75171;SDS011;63750;52.418;20.742;2023-04-24T11:38:05;10.90;;;8.80;;
75171;SDS011;63750;52.418;20.742;2023-04-24T11:40:33;9.20;;;8.30;;
75171;SDS011;63750;52.418;20.742;2023-04-24T11:43:00;8.30;;;7.50;;
75171;SDS011;63750;52.418;20.742;2023-04-24T11:45:30;7.50;;;6.70;;
75171;SDS011;63750;52.418;20.742;2023-04-24T11:47:57;7.20;;;6.30;;
75171;SDS011;63750;52.418;20.742;2023-04-24T11:50:24;6.70;;;6.10;;
75171;SDS011;63750;52.418;20.742;2023-04-24T11:52:53;7.00;;;6.30;;
75171;SDS011;63750;52.418;20.742;2023-04-24T11:55:24;6.80;;;6.20;;
75171;SDS011;63750;52.418;20.742;2023-04-24T11:57:52;7.90;;;6.30;;
75171;SDS011;63750;52.418;20.742;2023-04-24T12:00:21;7.20;;;6.50;;
75171;SDS011;63750;52.418;20.742;2023-04-24T12:02:49;7.00;;;6.00;;
75171;SDS011;63750;52.418;20.742;2023-04-24T12:05:19;8.60;;;6.70;;
75171;SDS011;63750;52.418;20.742;2023-04-24T12:07:47;7.00;;;6.30;;
75171;SDS011;63750;52.418;20.742;2023-04-24T12:10:19;7.50;;;6.80;;
75171;SDS011;63750;52.418;20.742;2023-04-24T12:12:46;7.90;;;7.10;;
75171;SDS011;63750;52.418;20.742;2023-04-24T12:15:13;7.80;;;7.10;;
75171;SDS011;63750;52.418;20.742;2023-04-24T12:17:43;7.20;;;6.60;;
75171;SDS011;63750;52.418;20.742;2023-04-24T12:20:11;7.80;;;7.00;;
75171;SDS011;63750;52.418;20.742;2023-04-24T12:22:46;8.00;;;7.30;;
75171;SDS011;63750;52.418;20.742;2023-04-24T12:25:15;8.20;;;7.40;;
75171;SDS011;63750;52.418;20.742;2023-04-24T12:27:43;7.90;;;7.20;;
75171;SDS011;63750;52.418;20.742;2023-04-24T12:30:12;10.00;;;7.80;;
75171;SDS011;63750;52.418;20.742;2023-04-24T12:32:41;8.60;;;7.80;;
75171;SDS011;63750;52.418;20.742;2023-04-24T12:35:10;8.50;;;7.60;;
75171;SDS011;63750;52.418;20.742;2023-04-24T12:37:38;8.10;;;7.30;;
75171;SDS011;63750;52.418;20.742;2023-04-24T12:40:09;9.80;;;8.00;;
75171;SDS011;63750;52.418;20.742;2023-04-24T12:42:42;8.20;;;7.50;;
75171;SDS011;63750;52.418;20.742;2023-04-24T12:45:10;8.80;;;7.70;;
75171;SDS011;63750;52.418;20.742;2023-04-24T12:47:38;9.10;;;7.60;;
75171;SDS011;63750;52.418;20.742;2023-04-24T12:50:07;8.70;;;7.10;;
75171;SDS011;63750;52.418;20.742;2023-04-24T12:52:35;7.50;;;6.70;;
75171;SDS011;63750;52.418;20.742;2023-04-24T12:55:03;8.20;;;7.10;;
75171;SDS011;63750;52.418;20.742;2023-04-24T12:57:32;7.50;;;6.80;;
75171;SDS011;63750;52.418;20.742;2023-04-24T13:00:00;8.50;;;7.60;;
75171;SDS011;63750;52.418;20.742;2023-04-24T13:02:29;8.30;;;7.50;;
75171;SDS011;63750;52.418;20.742;2023-04-24T13:04:57;9.00;;;8.20;;
75171;SDS011;63750;52.418;20.742;2023-04-24T13:07:24;9.20;;;7.60;;
75171;SDS011;63750;52.418;20.742;2023-04-24T13:09:52;8.50;;;7.80;;
75171;SDS011;63750;52.418;20.742;2023-04-24T13:12:20;9.00;;;8.00;;
75171;SDS011;63750;52.418;20.742;2023-04-24T13:14:47;9.00;;;8.10;;
75171;SDS011;63750;52.418;20.742;2023-04-24T13:17:14;8.60;;;7.70;;
75171;SDS011;63750;52.418;20.742;2023-04-24T13:19:42;9.30;;;7.00;;
75171;SDS011;63750;52.418;20.742;2023-04-24T13:22:15;16.00;;;6.70;;
75171;SDS011;63750;52.418;20.742;2023-04-24T13:24:42;11.10;;;7.30;;
75171;SDS011;63750;52.418;20.742;2023-04-24T13:27:09;13.70;;;6.70;;
75171;SDS011;63750;52.418;20.742;2023-04-24T13:29:36;11.30;;;6.90;;
75171;SDS011;63750;52.418;20.742;2023-04-24T13:32:03;10.10;;;6.80;;
75171;SDS011;63750;52.418;20.742;2023-04-24T13:34:30;7.20;;;6.50;;
75171;SDS011;63750;52.418;20.742;2023-04-24T13:36:57;8.00;;;7.00;;
75171;SDS011;63750;52.418;20.742;2023-04-24T13:39:37;13.90;;;7.10;;
75171;SDS011;63750;52.418;20.742;2023-04-24T13:42:04;10.90;;;6.50;;
75171;SDS011;63750;52.418;20.742;2023-04-24T13:44:31;8.40;;;6.20;;
75171;SDS011;63750;52.418;20.742;2023-04-24T13:46:58;8.10;;;6.00;;
75171;SDS011;63750;52.418;20.742;2023-04-24T13:49:26;7.00;;;6.30;;
75171;SDS011;63750;52.418;20.742;2023-04-24T13:51:53;7.00;;;5.90;;
75171;SDS011;63750;52.418;20.742;2023-04-24T13:54:21;8.30;;;6.70;;
75171;SDS011;63750;52.418;20.742;2023-04-24T13:56:48;7.20;;;6.40;;
75171;SDS011;63750;52.418;20.742;2023-04-24T13:59:15;8.20;;;6.40;;
75171;SDS011;63750;52.418;20.742;2023-04-24T14:01:42;6.80;;;6.20;;
75171;SDS011;63750;52.418;20.742;2023-04-24T14:04:09;6.60;;;6.00;;
75171;SDS011;63750;52.418;20.742;2023-04-24T14:06:36;6.70;;;6.00;;
75171;SDS011;63750;52.418;20.742;2023-04-24T14:09:04;6.60;;;5.80;;
75171;SDS011;63750;52.418;20.742;2023-04-24T14:11:32;7.30;;;6.60;;
75171;SDS011;63750;52.418;20.742;2023-04-24T14:13:59;8.20;;;6.20;;
75171;SDS011;63750;52.418;20.742;2023-04-24T14:16:26;13.40;;;6.40;;
75171;SDS011;63750;52.418;20.742;2023-04-24T14:18:53;7.40;;;6.50;;
75171;SDS011;63750;52.418;20.742;2023-04-24T14:21:24;9.10;;;6.40;;